sensor_id;sensor_type;location;lat;lon;timestamp;pressure;altitude;pressure_sealevel;temperature;humidity
8229;BME280;4155;50.118;8.714;2022-10-16T00:01:37;99801.88;;;15.53;100.00
8229;BME280;4155;50.118;8.714;2022-10-16T00:04:05;99803.03;;;15.57;100.00
8229;BME280;4155;50.118;8.714;2022-10-16T00:06:33;99793.53;;;15.54;100.00
8229;BME280;4155;50.118;8.714;2022-10-16T00:09:00;99783.53;;;15.55;100.00
8229;BME280;4155;50.118;8.714;2022-10-16T00:11:30;99778.13;;;15.55;100.00
8229;BME280;4155;50.118;8.714;2022-10-16T00:14:01;99777.88;;;15.56;100.00
8229;BME280;4155;50.118;8.714;2022-10-16T00:16:29;99778.03;;;15.61;100.00
8229;BME280;4155;50.118;8.714;2022-10-16T00:18:58;99774.03;;;15.64;100.00
8229;BME280;4155;50.118;8.714;2022-10-16T00:21:28;99772.75;;;15.67;100.00
8229;BME280;4155;50.118;8.714;2022-10-16T00:23:57;99763.22;;;15.64;100.00
8229;BME280;4155;50.118;8.714;2022-10-16T00:26:28;99782.75;;;15.66;100.00
8229;BME280;4155;50.118;8.714;2022-10-16T00:28:56;99786.84;;;15.69;100.00
8229;BME280;4155;50.118;8.714;2022-10-16T00:31:24;99789.88;;;15.72;100.00
8229;BME280;4155;50.118;8.714;2022-10-16T00:33:51;99796.72;;;15.75;100.00
8229;BME280;4155;50.118;8.714;2022-10-16T00:36:23;99792.47;;;15.79;100.00
8229;BME280;4155;50.118;8.714;2022-10-16T00:38:51;99792.81;;;15.82;100.00
8229;BME280;4155;50.118;8.714;2022-10-16T00:41:22;99791.75;;;15.83;100.00
8229;BME280;4155;50.118;8.714;2022-10-16T00:43:51;99781.19;;;15.82;100.00
8229;BME280;4155;50.118;8.714;2022-10-16T00:46:22;99788.03;;;15.84;100.00
8229;BME280;4155;50.118;8.714;2022-10-16T00:48:52;99776.72;;;15.87;100.00
8229;BME280;4155;50.118;8.714;2022-10-16T00:51:28;99784.13;;;15.80;100.00
8229;BME280;4155;50.118;8.714;2022-10-16T00:53:58;99779.78;;;15.79;100.00
8229;BME280;4155;50.118;8.714;2022-10-16T00:56:26;99779.53;;;15.81;100.00
8229;BME280;4155;50.118;8.714;2022-10-16T00:58:53;99774.94;;;15.81;100.00
8229;BME280;4155;50.118;8.714;2022-10-16T01:01:21;99782.25;;;15.81;100.00
8229;BME280;4155;50.118;8.714;2022-10-16T01:03:49;99792.00;;;15.82;100.00
8229;BME280;4155;50.118;8.714;2022-10-16T01:06:22;99777.66;;;15.81;100.00
8229;BME280;4155;50.118;8.714;2022-10-16T01:09:09;99781.75;;;15.84;100.00
8229;BME280;4155;50.118;8.714;2022-10-16T01:11:44;99796.47;;;15.88;100.00
8229;BME280;4155;50.118;8.714;2022-10-16T01:14:19;99814.09;;;15.90;100.00
8229;BME280;4155;50.118;8.714;2022-10-16T01:16:53;99808.22;;;15.94;100.00
8229;BME280;4155;50.118;8.714;2022-10-16T01:19:35;99803.53;;;15.89;100.00
8229;BME280;4155;50.118;8.714;2022-10-16T01:22:08;99816.00;;;15.90;100.00
8229;BME280;4155;50.118;8.714;2022-10-16T01:24:40;99820.09;;;15.93;100.00
8229;BME280;4155;50.118;8.714;2022-10-16T01:27:12;99823.75;;;15.98;100.00
8229;BME280;4155;50.118;8.714;2022-10-16T01:29:48;99828.69;;;16.01;100.00
8229;BME280;4155;50.118;8.714;2022-10-16T01:32:21;99820.81;;;16.00;100.00
8229;BME280;4155;50.118;8.714;2022-10-16T01:34:51;99820.56;;;16.01;100.00
8229;BME280;4155;50.118;8.714;2022-10-16T01:37:25;99811.28;;;15.97;100.00
8229;BME280;4155;50.118;8.714;2022-10-16T01:39:58;99805.88;;;15.97;100.00
8229;BME280;4155;50.118;8.714;2022-10-16T01:42:35;99786.47;;;16.00;100.00
8229;BME280;4155;50.118;8.714;2022-10-16T01:45:05;99792.59;;;15.96;100.00
8229;BME280;4155;50.118;8.714;2022-10-16T01:47:35;99800.34;;;15.92;100.00
8229;BME280;4155;50.118;8.714;2022-10-16T01:50:04;99802.72;;;15.88;100.00
8229;BME280;4155;50.118;8.714;2022-10-16T01:52:35;99800.09;;;15.82;100.00
8229;BME280;4155;50.118;8.714;2022-10-16T01:55:06;99805.75;;;15.80;100.00
8229;BME280;4155;50.118;8.714;2022-10-16T01:57:40;99817.88;;;15.78;100.00
8229;BME280;4155;50.118;8.714;2022-10-16T02:00:12;99821.06;;;15.75;100.00
8229;BME280;4155;50.118;8.714;2022-10-16T02:02:44;99827.53;;;15.74;100.00
8229;BME280;4155;50.118;8.714;2022-10-16T02:05:16;99820.00;;;15.76;100.00
8229;BME280;4155;50.118;8.714;2022-10-16T02:07:47;99823.63;;;15.70;100.00
8229;BME280;4155;50.118;8.714;2022-10-16T02:10:15;99817.75;;;15.73;100.00
8229;BME280;4155;50.118;8.714;2022-10-16T02:12:49;99810.94;;;15.70;100.00
8229;BME280;4155;50.118;8.714;2022-10-16T02:15:18;99811.66;;;15.66;100.00
8229;BME280;4155;50.118;8.714;2022-10-16T02:17:45;99824.22;;;15.60;100.00
8229;BME280;4155;50.118;8.714;2022-10-16T02:20:13;99824.66;;;15.57;100.00
8229;BME280;4155;50.118;8.714;2022-10-16T02:22:42;99830.88;;;15.57;100.00
8229;BME280;4155;50.118;8.714;2022-10-16T02:25:17;99840.63;;;15.58;100.00
8229;BME280;4155;50.118;8.714;2022-10-16T02:27:53;99840.06;;;15.56;100.00
8229;BME280;4155;50.118;8.714;2022-10-16T02:30:25;99830.88;;;15.57;100.00
8229;BME280;4155;50.118;8.714;2022-10-16T02:32:56;99832.22;;;15.67;100.00
8229;BME280;4155;50.118;8.714;2022-10-16T02:35:25;99832.31;;;15.60;100.00
8229;BME280;4155;50.118;8.714;2022-10-16T02:37:56;99831.13;;;15.56;100.00
8229;BME280;4155;50.118;8.714;2022-10-16T02:40:25;99835.56;;;15.50;100.00
8229;BME280;4155;50.118;8.714;2022-10-16T02:42:55;99831.13;;;15.56;100.00
8229;BME280;4155;50.118;8.714;2022-10-16T02:45:23;99828.66;;;15.54;100.00
8229;BME280;4155;50.118;8.714;2022-10-16T02:47:51;99826.41;;;15.51;100.00
8229;BME280;4155;50.118;8.714;2022-10-16T02:50:19;99831.34;;;15.54;100.00
8229;BME280;4155;50.118;8.714;2022-10-16T02:52:46;99834.31;;;15.53;100.00
8229;BME280;4155;50.118;8.714;2022-10-16T02:55:14;99831.94;;;15.56;100.00
8229;BME280;4155;50.118;8.714;2022-10-16T02:57:42;99839.75;;;15.65;100.00
8229;BME280;4155;50.118;8.714;2022-10-16T03:00:13;99844.09;;;15.77;100.00
8229;BME280;4155;50.118;8.714;2022-10-16T03:02:42;99837.03;;;15.65;100.00
8229;BME280;4155;50.118;8.714;2022-10-16T03:05:10;99840.81;;;15.64;100.00
8229;BME280;4155;50.118;8.714;2022-10-16T03:07:38;99849.59;;;15.71;100.00
8229;BME280;4155;50.118;8.714;2022-10-16T03:10:06;99849.03;;;15.69;100.00
8229;BME280;4155;50.118;8.714;2022-10-16T03:12:34;99862.06;;;15.72;100.00
8229;BME280;4155;50.118;8.714;2022-10-16T03:15:02;99858.66;;;15.65;100.00
8229;BME280;4155;50.118;8.714;2022-10-16T03:17:32;99858.28;;;15.61;100.00
8229;BME280;4155;50.118;8.714;2022-10-16T03:20:01;99855.78;;;15.59;100.00
8229;BME280;4155;50.118;8.714;2022-10-16T03:22:28;99850.19;;;15.61;100.00
8229;BME280;4155;50.118;8.714;2022-10-16T03:24:56;99858.50;;;15.59;100.00
8229;BME280;4155;50.118;8.714;2022-10-16T03:27:23;99861.19;;;15.59;100.00
8229;BME280;4155;50.118;8.714;2022-10-16T03:29:51;99861.81;;;15.61;100.00
8229;BME280;4155;50.118;8.714;2022-10-16T03:32:19;99861.69;;;15.56;100.00
8229;BME280;4155;50.118;8.714;2022-10-16T03:34:49;99876.47;;;15.54;100.00
8229;BME280;4155;50.118;8.714;2022-10-16T03:37:16;99871.66;;;15.56;100.00
8229;BME280;4155;50.118;8.714;2022-10-16T03:39:44;99867.22;;;15.61;100.00
8229;BME280;4155;50.118;8.714;2022-10-16T03:42:12;99857.84;;;15.64;100.00
8229;BME280;4155;50.118;8.714;2022-10-16T03:44:39;99864.06;;;15.65;100.00
8229;BME280;4155;50.118;8.714;2022-10-16T03:47:07;99870.53;;;15.64;100.00
8229;BME280;4155;50.118;8.714;2022-10-16T03:49:35;99878.75;;;15.69;100.00
8229;BME280;4155;50.118;8.714;2022-10-16T03:52:03;99884.41;;;15.67;100.00
8229;BME280;4155;50.118;8.714;2022-10-16T03:54:31;99878.75;;;15.69;100.00
8229;BME280;4155;50.118;8.714;2022-10-16T03:56:59;99880.88;;;15.67;100.00
8229;BME280;4155;50.118;8.714;2022-10-16T03:59:27;99870.16;;;15.60;100.00
8229;BME280;4155;50.118;8.714;2022-10-16T04:01:54;99861.59;;;15.63;100.00
8229;BME280;4155;50.118;8.714;2022-10-16T04:04:22;99867.66;;;15.58;100.00
8229;BME280;4155;50.118;8.714;2022-10-16T04:06:51;99874.06;;;15.64;100.00
8229;BME280;4155;50.118;8.714;2022-10-16T04:09:20;99874.72;;;15.59;100.00
8229;BME280;4155;50.118;8.714;2022-10-16T04:11:47;99868.88;;;15.62;100.00
8229;BME280;4155;50.118;8.714;2022-10-16T04:14:15;99866.41;;;15.61;100.00
8229;BME280;4155;50.118;8.714;2022-10-16T04:16:43;99867.91;;;15.57;100.00
8229;BME280;4155;50.118;8.714;2022-10-16T04:19:12;99877.13;;;15.68;100.00
8229;BME280;4155;50.118;8.714;2022-10-16T04:21:39;99886.16;;;15.73;100.00
8229;BME280;4155;50.118;8.714;2022-10-16T04:24:07;99892.03;;;15.70;100.00
8229;BME280;4155;50.118;8.714;2022-10-16T04:26:36;99904.63;;;15.76;100.00
8229;BME280;4155;50.118;8.714;2022-10-16T04:29:03;99897.59;;;15.75;100.00
8229;BME280;4155;50.118;8.714;2022-10-16T04:31:32;99903.00;;;15.75;100.00
8229;BME280;4155;50.118;8.714;2022-10-16T04:34:00;99894.66;;;15.77;100.00
8229;BME280;4155;50.118;8.714;2022-10-16T04:36:27;99891.94;;;15.65;100.00
8229;BME280;4155;50.118;8.714;2022-10-16T04:38:55;99893.00;;;15.64;100.00
8229;BME280;4155;50.118;8.714;2022-10-16T04:41:22;99897.56;;;15.64;100.00
8229;BME280;4155;50.118;8.714;2022-10-16T04:43:51;99898.16;;;15.66;100.00
8229;BME280;4155;50.118;8.714;2022-10-16T04:46:19;99903.31;;;15.67;100.00
8229;BME280;4155;50.118;8.714;2022-10-16T04:48:48;99902.38;;;15.61;100.00
8229;BME280;4155;50.118;8.714;2022-10-16T04:51:16;99907.09;;;15.66;100.00
8229;BME280;4155;50.118;8.714;2022-10-16T04:53:44;99906.03;;;15.67;100.00
8229;BME280;4155;50.118;8.714;2022-10-16T04:56:12;99894.97;;;15.69;100.00
8229;BME280;4155;50.118;8.714;2022-10-16T04:58:41;99891.44;;;15.68;100.00
8229;BME280;4155;50.118;8.714;2022-10-16T05:01:10;99892.84;;;15.71;100.00
8229;BME280;4155;50.118;8.714;2022-10-16T05:03:37;99895.31;;;15.72;100.00
8229;BME280;4155;50.118;8.714;2022-10-16T05:06:06;99901.69;;;15.78;100.00
8229;BME280;4155;50.118;8.714;2022-10-16T05:08:34;99901.69;;;15.78;100.00
8229;BME280;4155;50.118;8.714;2022-10-16T05:11:01;99910.63;;;15.78;100.00
8229;BME280;4155;50.118;8.714;2022-10-16T05:13:29;99896.41;;;15.83;100.00
8229;BME280;4155;50.118;8.714;2022-10-16T05:15:57;99907.69;;;15.80;100.00
8229;BME280;4155;50.118;8.714;2022-10-16T05:18:26;99912.28;;;15.79;100.00
8229;BME280;4155;50.118;8.714;2022-10-16T05:20:53;99911.22;;;15.80;100.00
8229;BME280;4155;50.118;8.714;2022-10-16T05:23:21;99916.63;;;15.80;100.00
8229;BME280;4155;50.118;8.714;2022-10-16T05:25:52;99915.81;;;15.80;100.00
8229;BME280;4155;50.118;8.714;2022-10-16T05:28:21;99923.09;;;15.79;100.00
8229;BME280;4155;50.118;8.714;2022-10-16T05:30:48;99919.69;;;15.84;100.00
8229;BME280;4155;50.118;8.714;2022-10-16T05:33:16;99921.31;;;15.73;100.00
8229;BME280;4155;50.118;8.714;2022-10-16T05:35:45;99924.97;;;15.79;100.00
8229;BME280;4155;50.118;8.714;2022-10-16T05:38:13;99905.78;;;15.69;100.00
8229;BME280;4155;50.118;8.714;2022-10-16T05:40:41;99884.59;;;15.54;100.00
8229;BME280;4155;50.118;8.714;2022-10-16T05:43:09;99893.63;;;15.59;100.00
8229;BME280;4155;50.118;8.714;2022-10-16T05:45:36;99887.41;;;15.59;100.00
8229;BME280;4155;50.118;8.714;2022-10-16T05:48:04;99894.50;;;15.60;100.00
8229;BME280;4155;50.118;8.714;2022-10-16T05:50:32;99905.44;;;15.65;100.00
8229;BME280;4155;50.118;8.714;2022-10-16T05:53:02;99915.78;;;15.68;100.00
8229;BME280;4155;50.118;8.714;2022-10-16T05:55:29;99918.84;;;15.72;100.00
8229;BME280;4155;50.118;8.714;2022-10-16T05:57:57;99926.13;;;15.71;100.00
8229;BME280;4155;50.118;8.714;2022-10-16T06:00:25;99926.50;;;15.75;100.00
8229;BME280;4155;50.118;8.714;2022-10-16T06:02:53;99934.97;;;15.78;100.00
8229;BME280;4155;50.118;8.714;2022-10-16T06:05:21;99952.13;;;15.84;100.00
8229;BME280;4155;50.118;8.714;2022-10-16T06:07:48;99958.72;;;15.88;100.00
8229;BME280;4155;50.118;8.714;2022-10-16T06:10:17;99945.44;;;15.86;100.00
8229;BME280;4155;50.118;8.714;2022-10-16T06:12:45;99946.84;;;15.89;100.00
8229;BME280;4155;50.118;8.714;2022-10-16T06:15:12;99956.97;;;15.94;100.00
8229;BME280;4155;50.118;8.714;2022-10-16T06:17:40;99952.84;;;15.91;100.00
8229;BME280;4155;50.118;8.714;2022-10-16T06:20:08;99950.97;;;15.91;100.00
8229;BME280;4155;50.118;8.714;2022-10-16T06:22:36;99958.84;;;15.93;100.00
8229;BME280;4155;50.118;8.714;2022-10-16T06:25:05;99956.13;;;15.93;100.00
8229;BME280;4155;50.118;8.714;2022-10-16T06:27:34;99956.88;;;16.00;100.00
8229;BME280;4155;50.118;8.714;2022-10-16T06:30:02;99964.16;;;16.11;100.00
8229;BME280;4155;50.118;8.714;2022-10-16T06:32:30;99967.34;;;16.08;100.00
8229;BME280;4155;50.118;8.714;2022-10-16T06:34:58;99966.53;;;16.08;100.00
8229;BME280;4155;50.118;8.714;2022-10-16T06:37:26;99966.41;;;16.14;100.00
8229;BME280;4155;50.118;8.714;2022-10-16T06:39:54;99961.94;;;16.20;100.00
8229;BME280;4155;50.118;8.714;2022-10-16T06:42:22;99968.66;;;16.17;100.00
8229;BME280;4155;50.118;8.714;2022-10-16T06:44:51;99963.81;;;16.19;100.00
8229;BME280;4155;50.118;8.714;2022-10-16T06:47:19;99963.59;;;16.21;100.00
8229;BME280;4155;50.118;8.714;2022-10-16T06:49:47;99961.22;;;16.25;100.00
8229;BME280;4155;50.118;8.714;2022-10-16T06:52:19;99964.06;;;16.30;100.00
8229;BME280;4155;50.118;8.714;2022-10-16T06:54:47;99968.50;;;16.36;100.00
8229;BME280;4155;50.118;8.714;2022-10-16T06:57:15;99974.06;;;16.41;100.00
8229;BME280;4155;50.118;8.714;2022-10-16T06:59:43;99981.84;;;16.49;100.00
8229;BME280;4155;50.118;8.714;2022-10-16T07:02:14;99984.41;;;16.56;100.00
8229;BME280;4155;50.118;8.714;2022-10-16T07:04:41;99980.19;;;16.60;100.00
8229;BME280;4155;50.118;8.714;2022-10-16T07:07:09;99980.53;;;16.63;100.00
8229;BME280;4155;50.118;8.714;2022-10-16T07:09:37;99977.25;;;16.73;100.00
8229;BME280;4155;50.118;8.714;2022-10-16T07:12:04;99982.09;;;16.71;100.00
8229;BME280;4155;50.118;8.714;2022-10-16T07:14:32;99983.69;;;16.84;100.00
8229;BME280;4155;50.118;8.714;2022-10-16T07:17:00;99989.34;;;16.94;100.00
8229;BME280;4155;50.118;8.714;2022-10-16T07:19:29;100002.16;;;16.98;100.00
8229;BME280;4155;50.118;8.714;2022-10-16T07:22:00;100002.53;;;17.02;100.00
8229;BME280;4155;50.118;8.714;2022-10-16T07:24:27;100006.09;;;17.19;100.00
8229;BME280;4155;50.118;8.714;2022-10-16T07:26:58;100009.28;;;17.28;100.00
8229;BME280;4155;50.118;8.714;2022-10-16T07:29:26;100009.13;;;17.34;100.00
8229;BME280;4155;50.118;8.714;2022-10-16T07:31:53;100022.53;;;17.41;100.00
8229;BME280;4155;50.118;8.714;2022-10-16T07:34:21;100031.66;;;17.35;99.80
8229;BME280;4155;50.118;8.714;2022-10-16T07:36:50;100034.97;;;17.25;99.82
8229;BME280;4155;50.118;8.714;2022-10-16T07:39:18;100038.88;;;17.18;100.00
8229;BME280;4155;50.118;8.714;2022-10-16T07:41:46;100044.88;;;17.20;100.00
8229;BME280;4155;50.118;8.714;2022-10-16T07:44:15;100043.47;;;17.17;100.00
8229;BME280;4155;50.118;8.714;2022-10-16T07:46:42;100045.25;;;17.23;100.00
8229;BME280;4155;50.118;8.714;2022-10-16T07:49:10;100061.94;;;17.20;99.88
8229;BME280;4155;50.118;8.714;2022-10-16T07:51:38;100054.44;;;17.11;100.00
8229;BME280;4155;50.118;8.714;2022-10-16T07:54:08;100064.31;;;17.17;99.98
8229;BME280;4155;50.118;8.714;2022-10-16T07:56:35;100067.41;;;17.09;100.00
8229;BME280;4155;50.118;8.714;2022-10-16T07:59:08;100060.00;;;17.04;100.00
8229;BME280;4155;50.118;8.714;2022-10-16T08:01:36;100057.13;;;17.22;100.00
8229;BME280;4155;50.118;8.714;2022-10-16T08:04:05;100060.50;;;17.41;100.00
8229;BME280;4155;50.118;8.714;2022-10-16T08:06:35;100066.97;;;17.40;99.40
8229;BME280;4155;50.118;8.714;2022-10-16T08:09:04;100070.19;;;17.37;99.30
8229;BME280;4155;50.118;8.714;2022-10-16T08:11:33;100085.84;;;17.47;98.82
8229;BME280;4155;50.118;8.714;2022-10-16T08:14:01;100098.09;;;17.38;98.54
8229;BME280;4155;50.118;8.714;2022-10-16T08:16:28;100104.03;;;17.11;99.57
8229;BME280;4155;50.118;8.714;2022-10-16T08:18:56;100104.41;;;17.03;100.00
8229;BME280;4155;50.118;8.714;2022-10-16T08:21:24;100111.59;;;16.97;100.00
8229;BME280;4155;50.118;8.714;2022-10-16T08:23:53;100107.00;;;16.98;100.00
8229;BME280;4155;50.118;8.714;2022-10-16T08:26:24;100105.94;;;16.99;100.00
8229;BME280;4155;50.118;8.714;2022-10-16T08:28:54;100105.09;;;16.98;100.00
8229;BME280;4155;50.118;8.714;2022-10-16T08:31:23;100112.66;;;16.96;100.00
8229;BME280;4155;50.118;8.714;2022-10-16T08:33:50;100124.31;;;16.97;100.00
8229;BME280;4155;50.118;8.714;2022-10-16T08:36:19;100122.44;;;16.86;100.00
8229;BME280;4155;50.118;8.714;2022-10-16T08:38:48;100127.94;;;16.79;100.00
8229;BME280;4155;50.118;8.714;2022-10-16T08:41:23;100123.84;;;16.88;100.00
8229;BME280;4155;50.118;8.714;2022-10-16T08:44:03;100133.97;;;16.93;100.00
8229;BME280;4155;50.118;8.714;2022-10-16T08:46:40;100142.44;;;16.96;100.00
8229;BME280;4155;50.118;8.714;2022-10-16T08:49:16;100144.44;;;17.01;100.00
8229;BME280;4155;50.118;8.714;2022-10-16T08:51:44;100138.22;;;17.12;100.00
8229;BME280;4155;50.118;8.714;2022-10-16T08:54:25;100143.50;;;17.19;100.00
8229;BME280;4155;50.118;8.714;2022-10-16T08:56:56;100144.56;;;17.18;100.00
8229;BME280;4155;50.118;8.714;2022-10-16T08:59:26;100146.56;;;17.11;100.00
8229;BME280;4155;50.118;8.714;2022-10-16T09:01:54;100155.41;;;17.06;100.00
8229;BME280;4155;50.118;8.714;2022-10-16T09:04:44;100154.69;;;16.99;100.00
8229;BME280;4155;50.118;8.714;2022-10-16T09:07:26;100167.41;;;16.98;100.00
8229;BME280;4155;50.118;8.714;2022-10-16T09:10:10;100173.06;;;16.97;100.00
8229;BME280;4155;50.118;8.714;2022-10-16T09:12:45;100181.31;;;16.90;100.00
8229;BME280;4155;50.118;8.714;2022-10-16T09:15:24;100174.38;;;16.83;100.00
8229;BME280;4155;50.118;8.714;2022-10-16T09:17:58;100171.19;;;16.86;100.00
8229;BME280;4155;50.118;8.714;2022-10-16T09:20:34;100175.69;;;16.92;100.00
8229;BME280;4155;50.118;8.714;2022-10-16T09:23:13;100180.38;;;16.85;100.00
8229;BME280;4155;50.118;8.714;2022-10-16T09:25:44;100183.19;;;16.90;100.00
8229;BME280;4155;50.118;8.714;2022-10-16T09:28:14;100184.38;;;16.94;100.00
8229;BME280;4155;50.118;8.714;2022-10-16T09:30:43;100191.22;;;16.96;100.00
8229;BME280;4155;50.118;8.714;2022-10-16T09:33:12;100203.69;;;16.97;100.00
8229;BME280;4155;50.118;8.714;2022-10-16T09:35:43;100205.25;;;17.05;100.00
8229;BME280;4155;50.118;8.714;2022-10-16T09:38:25;100211.16;;;17.02;100.00
8229;BME280;4155;50.118;8.714;2022-10-16T09:40:54;100217.16;;;17.04;100.00
8229;BME280;4155;50.118;8.714;2022-10-16T09:43:33;100222.56;;;16.92;100.00
8229;BME280;4155;50.118;8.714;2022-10-16T09:46:05;100226.19;;;16.98;100.00
8229;BME280;4155;50.118;8.714;2022-10-16T09:48:37;100223.38;;;16.93;100.00
8229;BME280;4155;50.118;8.714;2022-10-16T09:51:16;100224.78;;;16.95;100.00
8229;BME280;4155;50.118;8.714;2022-10-16T09:53:46;100223.22;;;16.88;100.00
8229;BME280;4155;50.118;8.714;2022-10-16T09:56:21;100228.66;;;16.99;100.00
8229;BME280;4155;50.118;8.714;2022-10-16T09:58:50;100217.97;;;17.04;100.00
8229;BME280;4155;50.118;8.714;2022-10-16T10:01:21;100223.16;;;17.29;100.00
8229;BME280;4155;50.118;8.714;2022-10-16T10:03:55;100216.78;;;17.59;100.00
8229;BME280;4155;50.118;8.714;2022-10-16T10:06:29;100229.63;;;17.75;100.00
8229;BME280;4155;50.118;8.714;2022-10-16T10:09:00;100223.25;;;17.81;99.39
8229;BME280;4155;50.118;8.714;2022-10-16T10:11:40;100221.63;;;17.80;98.38
8229;BME280;4155;50.118;8.714;2022-10-16T10:14:16;100227.88;;;17.81;98.16
8229;BME280;4155;50.118;8.714;2022-10-16T10:16:46;100221.31;;;18.05;97.63
8229;BME280;4155;50.118;8.714;2022-10-16T10:19:16;100217.25;;;18.48;96.55
8229;BME280;4155;50.118;8.714;2022-10-16T10:21:44;100217.75;;;18.90;94.70
8229;BME280;4155;50.118;8.714;2022-10-16T10:24:12;100217.25;;;19.27;92.21
8229;BME280;4155;50.118;8.714;2022-10-16T10:26:47;100222.19;;;19.47;90.60
8229;BME280;4155;50.118;8.714;2022-10-16T10:29:22;100224.44;;;19.55;89.12
8229;BME280;4155;50.118;8.714;2022-10-16T10:32:01;100217.06;;;19.50;88.73
8229;BME280;4155;50.118;8.714;2022-10-16T10:34:55;100222.19;;;19.47;88.60
8229;BME280;4155;50.118;8.714;2022-10-16T10:37:37;100222.28;;;19.18;89.47
8229;BME280;4155;50.118;8.714;2022-10-16T10:40:16;100217.94;;;19.17;89.60
8229;BME280;4155;50.118;8.714;2022-10-16T10:42:55;100219.19;;;19.87;88.50
8229;BME280;4155;50.118;8.714;2022-10-16T10:45:27;100217.63;;;20.40;85.33
8229;BME280;4155;50.118;8.714;2022-10-16T10:48:15;100211.25;;;20.51;83.66
8229;BME280;4155;50.118;8.714;2022-10-16T10:50:49;100220.75;;;20.27;83.53
8229;BME280;4155;50.118;8.714;2022-10-16T10:53:27;100218.56;;;20.45;83.76
8229;BME280;4155;50.118;8.714;2022-10-16T10:56:10;100224.25;;;20.44;83.01
8229;BME280;4155;50.118;8.714;2022-10-16T10:59:06;100210.69;;;20.49;83.96
8229;BME280;4155;50.118;8.714;2022-10-16T11:01:43;100213.00;;;20.40;82.53
8229;BME280;4155;50.118;8.714;2022-10-16T11:04:34;100211.97;;;20.19;83.66
8229;BME280;4155;50.118;8.714;2022-10-16T11:07:11;100208.38;;;20.14;84.54
8229;BME280;4155;50.118;8.714;2022-10-16T11:09:43;100207.00;;;20.11;84.63
8229;BME280;4155;50.118;8.714;2022-10-16T11:12:17;100202.81;;;20.04;84.74
8229;BME280;4155;50.118;8.714;2022-10-16T11:14:50;100197.22;;;20.15;84.46
8229;BME280;4155;50.118;8.714;2022-10-16T11:17:25;100195.41;;;20.21;84.55
8229;BME280;4155;50.118;8.714;2022-10-16T11:19:58;100200.66;;;20.06;85.53
8229;BME280;4155;50.118;8.714;2022-10-16T11:22:33;100202.25;;;20.02;86.07
8229;BME280;4155;50.118;8.714;2022-10-16T11:25:11;100203.19;;;19.90;86.27
8229;BME280;4155;50.118;8.714;2022-10-16T11:27:43;100200.94;;;20.09;86.49
8229;BME280;4155;50.118;8.714;2022-10-16T11:30:17;100201.13;;;20.25;86.68
8229;BME280;4155;50.118;8.714;2022-10-16T11:32:54;100205.66;;;20.14;85.93
8229;BME280;4155;50.118;8.714;2022-10-16T11:35:33;100203.56;;;19.77;87.64
8229;BME280;4155;50.118;8.714;2022-10-16T11:38:12;100208.69;;;19.74;88.54
8229;BME280;4155;50.118;8.714;2022-10-16T11:40:43;100202.00;;;19.81;88.23
8229;BME280;4155;50.118;8.714;2022-10-16T11:43:17;100206.78;;;19.96;88.18
8229;BME280;4155;50.118;8.714;2022-10-16T11:45:51;100215.28;;;20.00;86.97
8229;BME280;4155;50.118;8.714;2022-10-16T11:48:25;100207.94;;;20.00;87.53
8229;BME280;4155;50.118;8.714;2022-10-16T11:50:59;100212.88;;;20.03;86.43
8229;BME280;4155;50.118;8.714;2022-10-16T11:53:41;100204.28;;;19.89;86.65
8229;BME280;4155;50.118;8.714;2022-10-16T11:56:12;100206.47;;;20.14;87.61
8229;BME280;4155;50.118;8.714;2022-10-16T11:58:48;100203.69;;;20.09;86.61
8229;BME280;4155;50.118;8.714;2022-10-16T12:01:22;100200.84;;;20.21;86.57
8229;BME280;4155;50.118;8.714;2022-10-16T12:04:14;100201.09;;;20.73;85.59
8229;BME280;4155;50.118;8.714;2022-10-16T12:06:50;100191.59;;;21.08;82.50
8229;BME280;4155;50.118;8.714;2022-10-16T12:09:24;100192.94;;;21.43;82.01
8229;BME280;4155;50.118;8.714;2022-10-16T12:11:53;100202.19;;;21.42;80.76
8229;BME280;4155;50.118;8.714;2022-10-16T12:14:35;100199.22;;;21.06;80.90
8229;BME280;4155;50.118;8.714;2022-10-16T12:17:25;100209.41;;;20.89;82.61
8229;BME280;4155;50.118;8.714;2022-10-16T12:20:01;100198.50;;;20.57;83.31
8229;BME280;4155;50.118;8.714;2022-10-16T12:22:49;100195.44;;;20.26;85.47
8229;BME280;4155;50.118;8.714;2022-10-16T12:25:21;100194.16;;;20.34;85.55
8229;BME280;4155;50.118;8.714;2022-10-16T12:27:54;100189.19;;;20.31;85.06
8229;BME280;4155;50.118;8.714;2022-10-16T12:30:25;100189.66;;;20.44;84.86
8229;BME280;4155;50.118;8.714;2022-10-16T12:32:59;100195.47;;;20.53;83.86
8229;BME280;4155;50.118;8.714;2022-10-16T12:35:30;100192.28;;;20.61;83.67
8229;BME280;4155;50.118;8.714;2022-10-16T12:38:14;100202.47;;;20.44;83.14
8229;BME280;4155;50.118;8.714;2022-10-16T12:40:44;100201.28;;;20.40;82.94
8229;BME280;4155;50.118;8.714;2022-10-16T12:43:25;100205.06;;;20.34;83.16
8229;BME280;4155;50.118;8.714;2022-10-16T12:46:04;100205.78;;;20.24;84.13
8229;BME280;4155;50.118;8.714;2022-10-16T12:48:32;100202.75;;;20.20;83.60
8229;BME280;4155;50.118;8.714;2022-10-16T12:51:23;100200.63;;;20.28;82.91
8229;BME280;4155;50.118;8.714;2022-10-16T12:54:03;100212.72;;;20.37;82.29
8229;BME280;4155;50.118;8.714;2022-10-16T12:56:39;100214.44;;;20.43;82.80
8229;BME280;4155;50.118;8.714;2022-10-16T12:59:17;100212.88;;;20.52;81.76
8229;BME280;4155;50.118;8.714;2022-10-16T13:01:58;100209.94;;;20.54;82.13
8229;BME280;4155;50.118;8.714;2022-10-16T13:04:47;100214.88;;;20.62;81.96
8229;BME280;4155;50.118;8.714;2022-10-16T13:07:38;100205.50;;;20.47;82.08
8229;BME280;4155;50.118;8.714;2022-10-16T13:10:17;100209.97;;;20.37;82.98
8229;BME280;4155;50.118;8.714;2022-10-16T13:13:04;100208.06;;;20.37;82.22
8229;BME280;4155;50.118;8.714;2022-10-16T13:15:50;100203.75;;;20.41;82.38
8229;BME280;4155;50.118;8.714;2022-10-16T13:18:24;100213.41;;;20.49;82.26
8229;BME280;4155;50.118;8.714;2022-10-16T13:21:07;100215.72;;;20.62;81.97
8229;BME280;4155;50.118;8.714;2022-10-16T13:23:42;100220.22;;;20.51;81.57
8229;BME280;4155;50.118;8.714;2022-10-16T13:26:24;100224.47;;;20.64;81.36
8229;BME280;4155;50.118;8.714;2022-10-16T13:28:58;100228.31;;;20.68;80.94
8229;BME280;4155;50.118;8.714;2022-10-16T13:31:27;100214.06;;;20.61;81.07
8229;BME280;4155;50.118;8.714;2022-10-16T13:33:57;100218.50;;;20.67;80.92